Time;durP1;ratioP1;P1;durP2;ratioP2;P2;SDS_P1;SDS_P2;PMS_P1;PMS_P2;Temp;Humidity;BMP_temperature;BMP_pressure;BME280_temperature;BME280_humidity;BME280_pressure;Samples;Min_cycle;Max_cycle;Signal;HPM_P1;HPM_P2
2021/03/21 00:00:00;;;;;;;3.40;0.70;;;3.60;64.80;;;;;;5093836;28;20176;-68
2021/03/21 00:02:26;;;;;;;3.22;0.40;;;3.60;65.10;;;;;;5093708;28;20259;-69
2021/03/21 00:04:52;;;;;;;3.23;0.40;;;3.50;65.00;;;;;;5092280;28;20254;-69
2021/03/21 00:07:17;;;;;;;3.20;0.40;;;3.50;65.50;;;;;;5092451;28;20641;-70
2021/03/21 00:09:43;;;;;;;3.30;0.40;;;3.50;65.50;;;;;;5092369;28;20294;-69
2021/03/21 00:12:09;;;;;;;3.30;0.40;;;3.50;65.40;;;;;;5093461;28;20176;-70
2021/03/21 00:14:35;;;;;;;3.30;0.45;;;3.50;65.70;;;;;;5074684;28;20222;-70
2021/03/21 00:17:02;;;;;;;4.17;1.03;;;3.50;65.50;;;;;;5073649;28;20208;-69
2021/03/21 00:19:28;;;;;;;3.22;0.40;;;3.50;65.50;;;;;;5085984;28;20176;-69
2021/03/21 00:21:53;;;;;;;3.20;0.40;;;3.50;65.50;;;;;;5092235;28;20221;-70
2021/03/21 00:24:19;;;;;;;3.30;0.60;;;3.50;65.30;;;;;;5093181;28;20184;-69
2021/03/21 00:26:45;;;;;;;3.30;0.40;;;3.50;65.50;;;;;;5093716;28;20191;-69
2021/03/21 00:29:11;;;;;;;3.23;0.40;;;3.60;65.80;;;;;;5093064;28;20204;-70
2021/03/21 00:31:37;;;;;;;3.20;0.40;;;3.60;66.20;;;;;;5093605;28;20418;-69
2021/03/21 00:34:03;;;;;;;3.25;0.40;;;3.60;66.70;;;;;;5093001;28;20176;-71
2021/03/21 00:36:29;;;;;;;3.28;0.47;;;3.60;67.10;;;;;;5093638;28;20179;-68
2021/03/21 00:38:55;;;;;;;3.23;0.43;;;3.60;67.30;;;;;;5092183;28;20221;-69
2021/03/21 00:41:24;;;;;;;3.20;0.40;;;3.60;67.90;;;;;;5092884;28;20183;-69
2021/03/21 00:43:51;;;;;;;3.25;0.40;;;3.70;67.50;;;;;;5091616;28;20172;-69
2021/03/21 00:46:18;;;;;;;3.20;0.40;;;3.60;66.80;;;;;;5092182;28;20670;-69
2021/03/21 00:48:45;;;;;;;3.25;0.50;;;3.60;67.10;;;;;;5092968;28;20249;-69
2021/03/21 00:51:13;;;;;;;3.20;0.40;;;3.70;67.10;;;;;;5092305;28;20172;-69
2021/03/21 00:53:39;;;;;;;3.22;0.45;;;3.60;68.00;;;;;;5092893;28;20175;-69
2021/03/21 00:56:07;;;;;;;3.25;0.40;;;3.60;67.90;;;;;;5092906;28;20263;-70
2021/03/21 00:58:34;;;;;;;3.20;0.40;;;3.70;67.80;;;;;;5093290;28;20179;-70
2021/03/21 01:01:00;;;;;;;3.20;0.40;;;3.70;68.00;;;;;;5091767;28;20182;-70
2021/03/21 01:03:26;;;;;;;3.22;0.50;;;3.70;67.90;;;;;;5093091;28;20198;-70
2021/03/21 01:05:58;;;;;;;3.20;0.40;;;3.70;67.20;;;;;;5091740;28;20278;-68
2021/03/21 01:08:26;;;;;;;3.20;0.47;;;3.70;66.80;;;;;;5093174;28;20203;-69
2021/03/21 01:11:02;;;;;;;3.20;0.40;;;3.70;66.60;;;;;;5093188;28;20172;-70
2021/03/21 01:13:29;;;;;;;3.30;0.60;;;3.70;67.10;;;;;;5092867;28;20167;-69
2021/03/21 01:15:58;;;;;;;3.20;0.50;;;3.60;66.80;;;;;;5090911;28;20555;-70
2021/03/21 01:18:27;;;;;;;3.30;0.50;;;3.60;67.40;;;;;;5093051;28;20178;-70
2021/03/21 01:20:53;;;;;;;4.07;1.00;;;3.70;68.20;;;;;;5091858;28;20267;-69
2021/03/21 01:23:20;;;;;;;3.28;0.43;;;3.70;68.50;;;;;;5092865;28;20172;-70
2021/03/21 01:25:45;;;;;;;3.20;0.40;;;3.70;68.60;;;;;;5092662;28;20271;-70
2021/03/21 01:28:18;;;;;;;3.20;0.40;;;3.80;68.10;;;;;;5092903;28;20270;-69
2021/03/21 01:30:44;;;;;;;3.20;0.50;;;3.80;67.00;;;;;;5092612;28;20176;-69
2021/03/21 01:33:10;;;;;;;3.28;0.50;;;3.70;66.60;;;;;;5092571;28;20708;-70
2021/03/21 01:35:36;;;;;;;3.20;0.47;;;3.70;67.20;;;;;;5092591;28;20180;-71
2021/03/21 01:38:01;;;;;;;3.23;0.50;;;3.70;68.00;;;;;;5092677;28;20168;-71
2021/03/21 01:40:27;;;;;;;3.23;0.50;;;3.70;68.30;;;;;;5091325;28;20239;-69
2021/03/21 01:42:53;;;;;;;3.30;0.50;;;3.70;67.50;;;;;;5092686;28;20176;-69
2021/03/21 01:45:33;;;;;;;3.70;1.27;;;3.70;67.00;;;;;;5092500;28;20686;-69
2021/03/21 01:48:04;;;;;;;3.20;0.40;;;3.80;67.00;;;;;;5092469;28;20204;-69
2021/03/21 01:50:53;;;;;;;3.20;0.40;;;3.70;67.70;;;;;;5092943;28;20171;-70
2021/03/21 01:53:22;;;;;;;3.20;0.40;;;3.80;67.80;;;;;;5095410;28;20175;-70
2021/03/21 01:55:49;;;;;;;3.20;0.40;;;3.80;66.60;;;;;;5096251;28;20669;-70
2021/03/21 01:58:17;;;;;;;3.25;0.50;;;3.70;66.50;;;;;;5096083;28;20657;-70
2021/03/21 02:00:46;;;;;;;4.45;2.15;;;3.70;66.60;;;;;;5096443;28;20176;-68
2021/03/21 02:03:12;;;;;;;3.20;0.40;;;3.80;66.90;;;;;;5096239;28;20168;-69
2021/03/21 02:05:39;;;;;;;3.20;0.40;;;3.80;66.90;;;;;;5094834;28;20271;-69
2021/03/21 02:08:44;;;;;;;3.30;0.60;;;3.70;67.90;;;;;;5095530;28;20188;-69
2021/03/21 02:11:22;;;;;;;3.72;1.20;;;3.70;68.30;;;;;;5096934;28;20168;-69
2021/03/21 02:14:03;;;;;;;3.20;0.40;;;3.70;66.90;;;;;;5095651;28;20250;-71
2021/03/21 02:16:43;;;;;;;3.20;0.50;;;3.70;67.60;;;;;;5095669;28;20204;-69
2021/03/21 02:19:30;;;;;;;3.20;0.40;;;3.70;68.90;;;;;;5095757;28;20588;-70
2021/03/21 02:22:01;;;;;;;3.40;0.77;;;3.70;68.20;;;;;;5095883;28;20176;-70
2021/03/21 02:24:59;;;;;;;3.25;0.63;;;3.70;67.80;;;;;;5095502;28;20229;-70
2021/03/21 02:27:46;;;;;;;3.20;0.40;;;3.70;66.80;;;;;;5095325;28;20187;-70
2021/03/21 02:30:14;;;;;;;3.20;0.40;;;3.70;67.60;;;;;;5095855;28;20204;-70
2021/03/21 02:32:51;;;;;;;3.20;0.40;;;3.70;67.80;;;;;;5094219;28;20168;-70
2021/03/21 02:35:34;;;;;;;3.20;0.50;;;3.70;68.50;;;;;;5095370;28;20195;-70
2021/03/21 02:38:10;;;;;;;3.20;0.50;;;3.70;69.10;;;;;;5095073;28;20198;-70
2021/03/21 02:41:24;;;;;;;3.20;0.40;;;3.70;69.50;;;;;;5095535;28;20211;-70
2021/03/21 02:43:55;;;;;;;3.20;0.40;;;3.80;68.20;;;;;;5012857;28;20170;-69
2021/03/21 02:46:24;;;;;;;3.20;0.40;;;3.70;66.60;;;;;;5089030;28;20269;-68
2021/03/21 02:49:32;;;;;;;3.22;0.70;;;3.70;66.30;;;;;;5094034;28;20196;-69
2021/03/21 02:52:04;;;;;;;3.20;0.50;;;3.70;67.20;;;;;;5095555;28;20183;-70
2021/03/21 02:54:36;;;;;;;3.20;0.40;;;3.70;66.70;;;;;;5094744;28;20176;-70
2021/03/21 02:57:11;;;;;;;5.05;1.40;;;3.80;67.50;;;;;;5094931;28;20223;-69
2021/03/21 02:59:41;;;;;;;3.30;0.60;;;3.70;68.80;;;;;;5094976;28;20650;-70
2021/03/21 03:02:27;;;;;;;3.20;0.40;;;3.80;68.00;;;;;;5095324;28;20171;-70
2021/03/21 03:05:42;;;;;;;3.20;0.40;;;3.80;67.70;;;;;;5093407;28;20186;-69
2021/03/21 03:08:26;;;;;;;3.20;0.40;;;3.80;68.60;;;;;;5081615;28;20208;-68
2021/03/21 03:10:59;;;;;;;3.20;0.50;;;3.80;68.70;;;;;;5095019;28;20163;-69
2021/03/21 03:13:30;;;;;;;3.20;0.50;;;3.80;67.60;;;;;;5093534;28;20175;-69
2021/03/21 03:16:02;;;;;;;3.20;0.40;;;3.70;68.30;;;;;;5094468;28;20184;-70
2021/03/21 03:18:54;;;;;;;3.20;0.50;;;3.80;69.20;;;;;;5094842;28;20647;-70
2021/03/21 03:21:43;;;;;;;3.22;0.40;;;3.80;68.90;;;;;;5095088;28;20229;-68
2021/03/21 03:24:49;;;;;;;3.22;0.50;;;3.80;68.40;;;;;;5083353;28;20191;-68
2021/03/21 03:27:23;;;;;;;3.17;0.40;;;3.80;68.00;;;;;;5054653;28;20292;-68
2021/03/21 03:30:13;;;;;;;3.20;0.40;;;3.80;67.50;;;;;;5094717;28;20200;-68
2021/03/21 03:32:39;;;;;;;3.25;0.82;;;3.80;67.50;;;;;;5094641;28;20164;-71
2021/03/21 03:35:08;;;;;;;3.20;0.40;;;3.80;67.40;;;;;;5094057;28;20527;-70
2021/03/21 03:37:34;;;;;;;3.22;0.50;;;3.80;67.30;;;;;;5094647;28;20175;-69
2021/03/21 03:40:00;;;;;;;3.20;0.40;;;3.70;67.00;;;;;;5092796;28;20195;-70
2021/03/21 03:42:54;;;;;;;3.20;0.40;;;3.70;67.00;;;;;;5093921;28;20172;-70
2021/03/21 03:46:04;;;;;;;3.20;0.50;;;3.70;67.50;;;;;;5077703;28;20260;-70
2021/03/21 03:48:36;;;;;;;3.20;0.50;;;3.70;69.40;;;;;;5083073;28;20619;-70
2021/03/21 03:51:05;;;;;;;3.20;0.40;;;3.70;70.90;;;;;;5094207;28;20542;-71
2021/03/21 03:53:52;;;;;;;3.20;0.40;;;3.60;71.60;;;;;;5093988;28;20254;-70
2021/03/21 03:56:47;;;;;;;3.25;0.50;;;3.60;72.40;;;;;;5094493;28;20268;-69
2021/03/21 04:00:00;;;;;;;3.22;0.47;;;3.60;73.20;;;;;;5093189;28;20196;-69
2021/03/21 04:02:52;;;;;;;3.20;0.50;;;3.60;73.40;;;;;;5021952;28;20195;-71
2021/03/21 04:05:51;;;;;;;3.20;0.40;;;3.60;71.50;;;;;;5093252;28;20286;-70
2021/03/21 04:08:28;;;;;;;3.20;0.40;;;3.60;70.60;;;;;;5093179;28;20195;-70
2021/03/21 04:11:37;;;;;;;3.30;0.75;;;3.60;71.50;;;;;;5073690;28;20175;-70
2021/03/21 04:14:22;;;;;;;3.20;0.40;;;3.60;71.40;;;;;;5084424;28;20234;-70
2021/03/21 04:17:10;;;;;;;3.25;0.40;;;3.60;71.50;;;;;;5080072;28;20208;-70
2021/03/21 04:19:39;;;;;;;3.22;0.50;;;3.60;71.30;;;;;;5073505;28;20255;-71
2021/03/21 04:22:13;;;;;;;3.25;0.40;;;3.60;71.50;;;;;;5072269;28;20177;-70
2021/03/21 04:24:57;;;;;;;3.20;0.50;;;3.60;73.50;;;;;;5088043;28;20180;-70
2021/03/21 04:27:34;;;;;;;3.15;0.40;;;3.60;73.90;;;;;;5073547;28;20206;-70
2021/03/21 04:30:05;;;;;;;3.20;0.40;;;3.70;74.00;;;;;;5090968;28;20560;-70
2021/03/21 04:32:35;;;;;;;3.20;0.40;;;3.70;75.20;;;;;;5093375;28;20168;-70
2021/03/21 04:35:05;;;;;;;3.28;0.50;;;3.70;76.50;;;;;;5093246;28;20168;-69
2021/03/21 04:37:32;;;;;;;3.25;0.60;;;3.70;77.40;;;;;;5093235;28;20172;-69
2021/03/21 04:40:00;;;;;;;3.20;0.40;;;3.60;78.30;;;;;;5092793;28;20199;-70
2021/03/21 04:42:46;;;;;;;3.25;0.40;;;3.60;78.90;;;;;;5093271;28;20164;-70
2021/03/21 04:45:23;;;;;;;3.20;0.50;;;3.60;79.20;;;;;;5093087;28;20188;-70
2021/03/21 04:47:51;;;;;;;3.25;0.40;;;3.70;78.30;;;;;;5091161;28;20183;-70
2021/03/21 04:50:18;;;;;;;3.20;0.40;;;3.70;78.10;;;;;;5092059;28;20168;-70
2021/03/21 04:53:02;;;;;;;3.30;0.40;;;3.80;78.60;;;;;;5091297;28;20168;-70
2021/03/21 04:55:33;;;;;;;3.40;0.80;;;3.80;78.60;;;;;;5092976;28;20188;-70
2021/03/21 04:58:05;;;;;;;3.22;0.50;;;3.80;78.90;;;;;;5093034;28;20179;-70
2021/03/21 05:00:40;;;;;;;3.70;0.75;;;3.80;78.70;;;;;;5093673;28;20168;-68
2021/03/21 05:03:15;;;;;;;3.28;0.40;;;3.80;78.30;;;;;;5091841;28;20597;-69
2021/03/21 05:05:45;;;;;;;3.28;0.40;;;3.70;78.90;;;;;;5092774;28;20195;-69
2021/03/21 05:08:27;;;;;;;3.28;0.50;;;3.70;80.00;;;;;;5092746;28;20229;-70
2021/03/21 05:10:59;;;;;;;3.28;0.40;;;3.60;81.10;;;;;;5093443;28;20491;-69
2021/03/21 05:13:51;;;;;;;3.28;0.40;;;3.50;81.60;;;;;;5093009;28;20172;-70
2021/03/21 05:16:29;;;;;;;3.30;0.40;;;3.50;81.60;;;;;;5092658;28;20196;-70
2021/03/21 05:19:26;;;;;;;3.60;1.42;;;3.50;81.60;;;;;;5091922;28;20530;-70
2021/03/21 05:22:15;;;;;;;3.30;0.40;;;3.40;81.20;;;;;;5092961;28;20186;-72
2021/03/21 05:24:47;;;;;;;3.30;0.40;;;3.40;80.70;;;;;;5092184;28;20188;-71
2021/03/21 05:27:33;;;;;;;3.30;0.50;;;3.40;81.10;;;;;;5092986;28;20538;-69
2021/03/21 05:30:15;;;;;;;3.40;0.50;;;3.50;81.50;;;;;;5097134;28;20289;-70
2021/03/21 05:32:41;;;;;;;3.35;0.40;;;3.40;82.00;;;;;;5095091;28;20180;-70
2021/03/21 05:35:07;;;;;;;3.30;0.40;;;3.40;82.20;;;;;;5096205;28;20175;-71
2021/03/21 05:37:46;;;;;;;3.35;0.60;;;3.50;83.20;;;;;;5096357;28;20200;-71
2021/03/21 05:40:30;;;;;;;4.88;1.98;;;3.50;83.40;;;;;;5097203;28;20167;-70
2021/03/21 05:43:01;;;;;;;3.40;0.50;;;3.50;83.50;;;;;;5096578;28;20168;-70
2021/03/21 05:45:42;;;;;;;3.40;0.50;;;3.50;83.60;;;;;;5096125;28;20199;-70
2021/03/21 05:48:49;;;;;;;3.35;0.40;;;3.50;84.30;;;;;;5096357;28;20228;-70
2021/03/21 05:51:27;;;;;;;3.38;0.40;;;3.60;84.00;;;;;;5018707;28;20184;-69
2021/03/21 05:53:52;;;;;;;3.35;0.40;;;3.60;84.30;;;;;;5093066;28;20183;-71
2021/03/21 05:56:30;;;;;;;3.37;0.40;;;3.60;84.00;;;;;;5087138;28;20618;-69
2021/03/21 05:59:24;;;;;;;3.40;0.50;;;3.60;83.50;;;;;;5095124;28;20175;-71
2021/03/21 06:02:10;;;;;;;3.50;0.85;;;3.50;83.40;;;;;;5096067;28;20179;-69
2021/03/21 06:04:41;;;;;;;3.30;0.40;;;3.50;84.30;;;;;;5075744;28;20173;-68
2021/03/21 06:07:19;;;;;;;3.30;0.40;;;3.60;85.30;;;;;;5075727;28;20559;-70
2021/03/21 06:10:22;;;;;;;3.35;0.40;;;3.60;86.00;;;;;;5095905;28;20207;-69
2021/03/21 06:13:12;;;;;;;3.30;0.40;;;3.60;86.10;;;;;;5083930;28;20508;-70
2021/03/21 06:15:57;;;;;;;3.30;0.40;;;3.70;85.80;;;;;;5094251;28;20199;-69
2021/03/21 06:19:00;;;;;;;3.40;0.43;;;3.80;85.40;;;;;;5095936;28;20232;-69
2021/03/21 06:21:47;;;;;;;3.35;0.40;;;3.80;84.80;;;;;;5095714;28;20184;-71
2021/03/21 06:24:13;;;;;;;3.35;0.50;;;3.90;84.50;;;;;;5075528;28;20229;-69
2021/03/21 06:26:53;;;;;;;3.23;0.30;;;3.90;83.30;;;;;;5090327;28;20200;-70
2021/03/21 06:29:46;;;;;;;3.28;0.40;;;4.00;82.70;;;;;;5075637;28;20197;-69
2021/03/21 06:32:20;;;;;;;3.40;0.50;;;4.00;83.30;;;;;;5084067;28;20168;-67
2021/03/21 06:34:58;;;;;;;3.30;0.40;;;4.00;82.60;;;;;;5095255;28;20203;-69
2021/03/21 06:37:54;;;;;;;3.50;0.85;;;4.00;83.20;;;;;;5093964;28;20172;-70
2021/03/21 06:40:35;;;;;;;3.40;0.40;;;3.90;83.60;;;;;;5094352;28;20183;-70
2021/03/21 06:43:03;;;;;;;3.40;0.60;;;3.90;83.90;;;;;;5094035;28;20183;-69
2021/03/21 06:45:50;;;;;;;3.33;0.40;;;4.00;83.80;;;;;;5094708;28;20276;-70
2021/03/21 06:48:49;;;;;;;3.30;0.50;;;4.00;83.30;;;;;;5095039;28;20570;-69
2021/03/21 06:51:36;;;;;;;3.85;1.20;;;4.00;83.10;;;;;;5094014;28;20193;-70
2021/03/21 06:54:26;;;;;;;3.35;0.60;;;4.10;82.50;;;;;;5094579;28;20279;-68
2021/03/21 06:57:21;;;;;;;3.40;0.73;;;4.10;80.90;;;;;;5095111;28;20203;-69
2021/03/21 07:00:09;;;;;;;3.30;0.40;;;4.20;79.70;;;;;;5092163;28;20577;-69
2021/03/21 07:03:11;;;;;;;3.40;0.40;;;4.20;78.90;;;;;;5075224;28;20305;-70
2021/03/21 07:06:08;;;;;;;3.30;0.45;;;4.20;79.10;;;;;;5081173;28;20534;-69
2021/03/21 07:09:01;;;;;;;3.40;0.50;;;4.20;79.70;;;;;;5093667;28;20274;-69
2021/03/21 07:11:30;;;;;;;3.30;0.40;;;4.30;79.90;;;;;;5092295;28;20639;-69
2021/03/21 07:14:04;;;;;;;3.33;0.40;;;4.30;79.60;;;;;;5092026;28;20262;-70
2021/03/21 07:16:39;;;;;;;3.40;0.50;;;4.30;78.70;;;;;;5094237;28;20245;-68
2021/03/21 07:19:07;;;;;;;3.35;0.43;;;4.40;79.00;;;;;;5094646;28;20175;-70
2021/03/21 07:22:02;;;;;;;3.38;0.40;;;4.40;79.10;;;;;;5094526;28;20384;-69
2021/03/21 07:24:39;;;;;;;3.33;0.40;;;4.50;78.90;;;;;;5062609;28;20192;-72
2021/03/21 07:27:29;;;;;;;3.30;0.40;;;4.50;78.70;;;;;;5090299;28;20196;-69
2021/03/21 07:30:10;;;;;;;3.40;0.50;;;4.50;78.60;;;;;;5094691;28;20227;-68
2021/03/21 07:33:23;;;;;;;3.40;0.40;;;4.50;79.10;;;;;;5094575;28;20167;-70
2021/03/21 07:35:58;;;;;;;3.30;0.40;;;4.50;78.70;;;;;;5011740;28;20209;-72
2021/03/21 07:38:30;;;;;;;3.40;0.50;;;4.60;78.80;;;;;;5012033;28;20186;-70
2021/03/21 07:41:11;;;;;;;3.38;0.30;;;4.60;78.90;;;;;;5011735;28;20181;-74
2021/03/21 07:43:51;;;;;;;3.50;0.70;;;4.60;78.70;;;;;;5026485;28;20239;-70
2021/03/21 07:46:44;;;;;;;3.45;0.60;;;4.70;78.90;;;;;;5015343;28;20206;-71
2021/03/21 07:49:32;;;;;;;3.30;0.50;;;4.60;78.70;;;;;;5012566;28;20209;-73
2021/03/21 07:52:37;;;;;;;3.40;0.40;;;4.70;79.10;;;;;;5012358;28;20194;-71
2021/03/21 07:55:21;;;;;;;3.40;0.30;;;4.70;78.40;;;;;;4955678;28;20222;-71
2021/03/21 07:57:58;;;;;;;3.38;0.40;;;4.80;78.30;;;;;;4954781;28;20329;-69
2021/03/21 08:00:24;;;;;;;3.40;0.50;;;4.80;78.10;;;;;;4934967;29;20184;-68
2021/03/21 08:02:55;;;;;;;3.40;0.40;;;4.80;77.80;;;;;;4945000;28;20190;-67
2021/03/21 08:05:25;;;;;;;3.35;0.47;;;4.90;77.30;;;;;;4972375;28;20208;-70
2021/03/21 08:07:57;;;;;;;3.40;0.50;;;4.90;77.20;;;;;;4955385;28;20216;-68
2021/03/21 08:10:31;;;;;;;3.40;0.40;;;4.90;77.30;;;;;;4965161;28;20277;-68
2021/03/21 08:13:20;;;;;;;3.42;0.40;;;5.00;77.50;;;;;;5026487;28;20186;-68
2021/03/21 08:15:55;;;;;;;3.30;0.35;;;5.10;77.80;;;;;;4984991;28;20294;-71
2021/03/21 08:18:31;;;;;;;3.40;0.50;;;5.10;77.10;;;;;;4988108;28;20660;-70
2021/03/21 08:20:59;;;;;;;3.40;0.40;;;5.20;77.40;;;;;;5005344;28;20200;-71
2021/03/21 08:23:33;;;;;;;3.38;0.40;;;5.30;77.80;;;;;;4995436;28;20249;-71
2021/03/21 08:26:02;;;;;;;3.40;0.40;;;5.40;77.90;;;;;;5011664;28;20210;-69
2021/03/21 08:28:37;;;;;;;3.97;0.98;;;5.40;77.80;;;;;;5002222;28;20280;-70
2021/03/21 08:31:08;;;;;;;3.45;0.55;;;5.60;77.30;;;;;;5026162;28;20207;-69
2021/03/21 08:33:34;;;;;;;3.50;0.80;;;5.70;76.40;;;;;;5091775;28;20200;-71
2021/03/21 08:36:23;;;;;;;3.47;0.60;;;5.70;74.90;;;;;;5091492;28;20219;-71
2021/03/21 08:39:10;;;;;;;3.40;0.40;;;5.70;74.60;;;;;;5090221;28;20175;-69
2021/03/21 08:41:47;;;;;;;3.40;0.40;;;5.70;74.30;;;;;;5085227;28;20179;-71
2021/03/21 08:44:31;;;;;;;3.40;0.40;;;5.80;74.20;;;;;;5089171;28;20233;-69
2021/03/21 08:46:57;;;;;;;3.35;0.40;;;5.80;74.40;;;;;;5093297;28;20633;-68
2021/03/21 08:49:25;;;;;;;3.40;0.50;;;5.80;75.40;;;;;;5091635;28;20203;-70
2021/03/21 08:51:52;;;;;;;3.42;0.40;;;5.90;74.50;;;;;;5092270;28;20249;-69
2021/03/21 08:54:27;;;;;;;3.40;0.40;;;5.90;75.60;;;;;;5092259;28;20179;-69
2021/03/21 08:57:04;;;;;;;3.40;0.40;;;6.00;75.50;;;;;;5090572;28;20198;-70
2021/03/21 08:59:36;;;;;;;3.30;0.40;;;6.10;75.80;;;;;;5089722;28;20179;-69
2021/03/21 09:02:17;;;;;;;3.40;0.40;;;6.20;76.60;;;;;;5094458;28;20172;-69
2021/03/21 09:05:07;;;;;;;3.40;0.40;;;6.20;76.80;;;;;;5094317;28;20263;-70
2021/03/21 09:07:35;;;;;;;3.40;0.40;;;6.30;77.00;;;;;;5097013;28;20176;-70
2021/03/21 09:10:48;;;;;;;3.40;0.40;;;6.40;75.10;;;;;;5096629;28;20228;-71
2021/03/21 09:13:19;;;;;;;3.40;0.40;;;6.40;75.50;;;;;;5015088;28;20186;-71
2021/03/21 09:15:59;;;;;;;3.40;0.40;;;6.40;75.50;;;;;;5014572;28;20653;-69
2021/03/21 09:18:32;;;;;;;3.35;0.40;;;6.40;75.80;;;;;;5014576;28;20187;-68
2021/03/21 09:21:21;;;;;;;3.33;0.40;;;6.40;76.00;;;;;;4997861;28;20228;-69
2021/03/21 09:24:09;;;;;;;3.38;0.40;;;6.50;75.80;;;;;;4994743;28;20184;-70
2021/03/21 09:26:46;;;;;;;3.40;0.45;;;6.30;75.50;;;;;;5010353;28;20268;-69
2021/03/21 09:29:21;;;;;;;3.30;0.40;;;6.30;77.20;;;;;;5014425;28;20568;-68
2021/03/21 09:31:49;;;;;;;3.40;0.40;;;6.30;76.40;;;;;;5014322;28;20206;-69
2021/03/21 09:34:35;;;;;;;3.40;0.40;;;6.30;76.80;;;;;;5013894;28;20187;-70
2021/03/21 09:37:11;;;;;;;3.50;0.70;;;6.30;76.50;;;;;;5014778;28;20604;-69
2021/03/21 09:39:49;;;;;;;3.38;0.50;;;6.40;76.60;;;;;;5014365;28;20174;-69
2021/03/21 09:42:15;;;;;;;3.30;0.40;;;6.50;76.80;;;;;;5014270;28;20186;-69
2021/03/21 09:44:43;;;;;;;3.40;0.40;;;6.50;77.00;;;;;;5013847;28;20190;-69
2021/03/21 09:47:19;;;;;;;3.40;0.40;;;6.50;77.60;;;;;;5014521;28;20241;-70
2021/03/21 09:49:51;;;;;;;3.40;0.40;;;6.50;77.50;;;;;;5062071;28;20685;-70
2021/03/21 09:52:39;;;;;;;3.40;0.40;;;6.60;77.90;;;;;;5088023;28;20178;-70
2021/03/21 09:55:11;;;;;;;3.40;0.30;;;6.60;77.60;;;;;;5095346;28;20302;-67
2021/03/21 09:57:53;;;;;;;3.38;0.40;;;6.70;76.90;;;;;;5096412;28;20530;-68
2021/03/21 10:00:25;;;;;;;3.40;0.40;;;6.80;77.10;;;;;;5095841;28;20165;-70
2021/03/21 10:03:08;;;;;;;3.40;0.40;;;6.80;77.00;;;;;;5096332;28;20173;-67
2021/03/21 10:05:37;;;;;;;3.35;0.40;;;6.90;76.80;;;;;;5092757;28;20722;-69
2021/03/21 10:08:16;;;;;;;3.80;0.88;;;6.90;76.00;;;;;;5078970;28;20287;-71
2021/03/21 10:10:58;;;;;;;3.38;0.40;;;6.90;76.10;;;;;;5083171;28;20702;-72
2021/03/21 10:13:39;;;;;;;3.40;0.30;;;7.00;77.50;;;;;;5095522;28;20172;-70
2021/03/21 10:16:18;;;;;;;3.40;0.40;;;7.00;80.70;;;;;;5095243;28;20185;-75
2021/03/21 10:18:48;;;;;;;3.40;0.50;;;7.10;80.90;;;;;;5094782;28;20199;-76
2021/03/21 10:21:23;;;;;;;3.42;0.47;;;7.10;80.70;;;;;;5095688;28;20193;-75
2021/03/21 10:23:49;;;;;;;3.40;0.30;;;7.20;81.60;;;;;;5085152;28;20187;-76
2021/03/21 10:26:20;;;;;;;3.40;0.47;;;7.20;81.40;;;;;;5095356;28;20187;-72
2021/03/21 10:28:50;;;;;;;3.60;0.70;;;7.20;83.00;;;;;;5095965;28;20194;-72
2021/03/21 10:31:26;;;;;;;3.50;0.50;;;7.30;83.90;;;;;;5094041;28;20230;-73
2021/03/21 10:34:16;;;;;;;3.50;0.60;;;7.40;84.90;;;;;;5095127;28;20580;-73
2021/03/21 10:36:45;;;;;;;3.40;0.30;;;7.50;84.10;;;;;;5095249;28;20188;-76
2021/03/21 10:39:12;;;;;;;3.40;0.40;;;7.60;84.80;;;;;;5095460;28;20175;-77
2021/03/21 10:41:53;;;;;;;3.45;0.50;;;7.60;84.60;;;;;;5089846;28;20174;-75
2021/03/21 10:44:21;;;;;;;3.38;0.30;;;7.50;86.40;;;;;;5094870;28;20199;-74
2021/03/21 10:46:53;;;;;;;3.40;0.40;;;7.50;87.50;;;;;;5092660;28;20660;-77
2021/03/21 10:49:48;;;;;;;3.40;0.40;;;7.50;86.90;;;;;;5095374;28;20237;-74
2021/03/21 10:52:34;;;;;;;3.38;0.40;;;7.50;88.00;;;;;;5095192;28;20185;-77
2021/03/21 10:55:15;;;;;;;3.40;0.40;;;7.40;89.50;;;;;;5094826;28;20176;-77
2021/03/21 10:58:38;;;;;;;3.33;0.40;;;7.40;90.10;;;;;;5095059;28;20526;-76
2021/03/21 11:01:19;;;;;;;3.35;0.40;;;7.40;90.30;;;;;;5094567;28;20221;-80
2021/03/21 11:03:49;;;;;;;3.40;0.50;;;7.30;90.50;;;;;;5094608;28;20263;-73
2021/03/21 11:06:17;;;;;;;3.38;0.40;;;7.30;90.90;;;;;;5094271;28;20749;-75
2021/03/21 11:08:43;;;;;;;3.40;0.77;;;7.20;91.50;;;;;;5095001;28;20205;-72
2021/03/21 11:11:32;;;;;;;3.50;0.60;;;7.20;92.10;;;;;;5094725;28;20487;-73
2021/03/21 11:14:20;;;;;;;3.35;0.50;;;7.30;92.50;;;;;;5094341;28;20494;-72
2021/03/21 11:17:20;;;;;;;3.30;0.30;;;7.50;92.50;;;;;;5093297;28;20697;-71
2021/03/21 11:19:52;;;;;;;3.33;0.50;;;7.50;92.30;;;;;;5089294;28;20205;-72
2021/03/21 11:22:29;;;;;;;3.30;0.40;;;7.50;92.60;;;;;;5095361;28;20168;-70
2021/03/21 11:24:55;;;;;;;3.28;0.30;;;7.60;92.70;;;;;;5092344;28;20594;-73
2021/03/21 11:27:30;;;;;;;6.03;2.00;;;7.60;92.50;;;;;;5093334;28;20203;-73
2021/03/21 11:30:08;;;;;;;3.30;0.30;;;7.70;92.70;;;;;;5094394;28;20202;-71
2021/03/21 11:32:34;;;;;;;3.60;1.00;;;7.70;92.00;;;;;;5094605;28;20172;-68
2021/03/21 11:35:05;;;;;;;3.70;1.13;;;7.70;91.90;;;;;;5093241;28;20182;-70
2021/03/21 11:37:37;;;;;;;3.30;0.40;;;7.80;91.80;;;;;;5094194;28;20548;-67
2021/03/21 11:40:22;;;;;;;3.30;0.30;;;7.90;91.60;;;;;;5093639;28;20172;-71
2021/03/21 11:43:03;;;;;;;3.60;0.82;;;8.00;91.80;;;;;;5093163;28;20171;-68
2021/03/21 11:45:31;;;;;;;3.30;0.30;;;8.10;90.90;;;;;;5077410;28;20748;-70
2021/03/21 11:48:10;;;;;;;3.30;0.40;;;8.00;90.30;;;;;;5091892;28;20579;-67
2021/03/21 11:50:39;;;;;;;3.33;0.50;;;7.90;90.10;;;;;;5083238;28;20223;-68
2021/03/21 11:53:11;;;;;;;3.25;0.30;;;7.90;89.80;;;;;;5093028;28;20251;-68
2021/03/21 11:55:41;;;;;;;3.35;0.35;;;7.80;88.60;;;;;;5088411;28;20195;-67
2021/03/21 11:58:30;;;;;;;3.30;0.40;;;7.80;89.30;;;;;;5083550;28;20172;-68
2021/03/21 12:01:15;;;;;;;3.20;0.30;;;7.60;90.20;;;;;;5094267;28;20501;-68
2021/03/21 12:03:54;;;;;;;3.40;0.50;;;7.60;90.40;;;;;;5093844;28;20285;-67
2021/03/21 12:06:48;;;;;;;3.30;0.40;;;7.60;90.10;;;;;;5093935;28;20237;-66
2021/03/21 12:09:24;;;;;;;3.25;0.40;;;7.50;90.60;;;;;;5093308;28;20225;-69
2021/03/21 12:11:50;;;;;;;3.30;0.38;;;7.50;90.70;;;;;;5094069;28;20193;-69
2021/03/21 12:14:31;;;;;;;3.28;0.30;;;7.50;91.40;;;;;;5092691;28;20237;-69
2021/03/21 12:17:18;;;;;;;3.30;0.40;;;7.40;91.80;;;;;;5080319;28;20197;-69
2021/03/21 12:19:43;;;;;;;3.30;0.40;;;7.20;92.40;;;;;;5086389;28;20177;-66
2021/03/21 12:22:34;;;;;;;3.30;0.40;;;7.10;92.50;;;;;;5093780;28;20170;-67
2021/03/21 12:25:17;;;;;;;3.30;0.40;;;7.10;93.00;;;;;;5086386;28;20869;-67
2021/03/21 12:27:42;;;;;;;3.40;0.63;;;7.20;93.90;;;;;;5072169;28;20534;-66
2021/03/21 12:30:28;;;;;;;3.37;0.30;;;7.20;94.90;;;;;;5084191;28;20205;-67
2021/03/21 12:33:23;;;;;;;3.80;0.98;;;7.20;95.30;;;;;;5073396;28;20195;-72
2021/03/21 12:35:49;;;;;;;3.30;0.30;;;7.10;95.80;;;;;;5077453;28;20185;-70
2021/03/21 12:38:58;;;;;;;3.40;0.40;;;7.10;96.00;;;;;;5092257;28;20190;-69
2021/03/21 12:41:34;;;;;;;3.30;0.40;;;7.20;96.10;;;;;;5093228;28;20537;-67
2021/03/21 12:44:22;;;;;;;3.40;0.50;;;7.40;96.40;;;;;;5092563;28;20715;-66
2021/03/21 12:47:13;;;;;;;3.33;0.40;;;7.70;96.50;;;;;;5075788;28;20201;-63
2021/03/21 12:49:45;;;;;;;3.35;0.30;;;7.80;96.20;;;;;;5090082;28;20586;-65
2021/03/21 12:52:36;;;;;;;3.38;0.30;;;7.90;96.10;;;;;;5091767;28;20172;-66
2021/03/21 12:55:03;;;;;;;3.40;0.40;;;8.00;95.90;;;;;;5061909;28;20195;-66
2021/03/21 12:57:29;;;;;;;3.47;0.52;;;8.00;96.00;;;;;;5091769;28;20172;-65
2021/03/21 12:59:55;;;;;;;3.40;0.40;;;8.00;96.20;;;;;;5093085;28;20187;-65
2021/03/21 13:02:30;;;;;;;3.40;0.50;;;8.00;96.20;;;;;;5093458;28;20172;-64
2021/03/21 13:04:57;;;;;;;3.40;0.40;;;8.00;96.20;;;;;;5091295;28;20180;-66
2021/03/21 13:07:24;;;;;;;3.30;0.50;;;8.10;96.30;;;;;;5093006;28;20202;-65
2021/03/21 13:09:54;;;;;;;3.30;0.40;;;8.10;96.30;;;;;;5082812;28;20203;-66
2021/03/21 13:12:21;;;;;;;4.50;0.77;;;8.00;96.60;;;;;;5093255;28;20524;-66
2021/03/21 13:14:51;;;;;;;3.35;0.40;;;7.90;96.90;;;;;;5092461;28;20179;-66
2021/03/21 13:17:20;;;;;;;3.35;0.40;;;7.90;97.50;;;;;;5092518;28;20192;-66
2021/03/21 13:19:45;;;;;;;3.40;0.60;;;7.90;98.10;;;;;;5092977;28;20636;-65
2021/03/21 13:22:12;;;;;;;3.40;0.50;;;7.80;98.50;;;;;;5093234;28;20307;-64
2021/03/21 13:24:38;;;;;;;3.50;0.65;;;7.70;98.70;;;;;;5092884;28;20532;-65
2021/03/21 13:27:05;;;;;;;3.40;0.40;;;7.60;99.40;;;;;;5092749;28;20193;-65
2021/03/21 13:29:31;;;;;;;3.42;0.40;;;7.60;99.60;;;;;;5092761;28;20217;-65
2021/03/21 13:31:57;;;;;;;3.38;0.30;;;7.50;99.90;;;;;;5093080;28;20172;-66
2021/03/21 13:34:28;;;;;;;3.40;0.50;;;7.50;99.90;;;;;;5092203;28;20180;-66
2021/03/21 13:36:55;;;;;;;3.45;0.40;;;7.40;99.90;;;;;;5092784;28;20190;-66
2021/03/21 13:39:21;;;;;;;3.42;0.50;;;7.40;99.90;;;;;;5092538;28;20179;-67
2021/03/21 13:41:46;;;;;;;3.40;0.30;;;7.50;99.90;;;;;;5093062;28;20179;-66
2021/03/21 13:44:12;;;;;;;3.43;0.50;;;7.50;99.90;;;;;;5092443;28;20227;-66
2021/03/21 13:46:39;;;;;;;3.40;0.30;;;7.50;99.90;;;;;;5092401;28;20198;-66
2021/03/21 13:49:05;;;;;;;3.50;0.40;;;7.40;99.90;;;;;;5095331;28;20211;-66